Données. Loja

Actualisé: samedi, 18 avril 2015 04:32 (heure officielle)
Ind. climatologique: 5582A -  Altitude (m): 594
Latitude37° 9' 40'' N - Longitude4° 9' 10'' O -  PositionVoir localisation
MunicipioLoja (Granada) - Ver predicción
Registros - de
Fecha y hora oficial

 

Temp. (°C)

 

Vit. vent (km/h)

 

Dir. vent

 

Rafale (km/h)

 

Dir. rafale

 

Prec. (mm)

 

Pression (hPa)

 

Tend. (hPa)

 

Humidité (%)

 

18/04/2015 04:00 12.2 0 1-CalmeCalme 11 6-SudSud 0.0 946.7 -1.0 73
18/04/2015 03:00 13.3 0 1-CalmeCalme 5 6-SudSud 0.0 947.2 -0.5 68
18/04/2015 02:00 13.6 3 6-SudSud 8 8-OuestOuest 0.0 947.5 -0.2 65
18/04/2015 01:00 14.4 4 9-Nord-OuestNord-Ouest 12 8-OuestOuest 0.0 947.7 0.4 59
18/04/2015 00:00 16.4 4 8-OuestOuest 13 8-OuestOuest 0.0 947.7 1.1 50
17/04/2015 23:00 17.0 7 8-OuestOuest 23 8-OuestOuest 0.0 947.7 1.5 49
17/04/2015 22:00 17.7 11 8-OuestOuest 24 8-OuestOuest 0.0 947.3 1.2 49
17/04/2015 21:00 18.2 8 8-OuestOuest 18 9-Nord-OuestNord-Ouest 0.0 946.6 0.5 45
17/04/2015 20:00 19.6 5 9-Nord-OuestNord-Ouest 18 9-Nord-OuestNord-Ouest 0.0 946.2 -0.2 37
17/04/2015 19:00 20.7 7 9-Nord-OuestNord-Ouest 24 2-NordNord 0.0 946.1 -0.9 34
17/04/2015 18:00 21.0 8 2-NordNord 21 2-NordNord 0.0 946.1 -1.8 33
17/04/2015 17:00 22.6 7 9-Nord-OuestNord-Ouest 20 2-NordNord 0.0 946.4 -2.0 31
17/04/2015 16:00 22.1 8 9-Nord-OuestNord-Ouest 23 9-Nord-OuestNord-Ouest 0.0 947.0 -2.0 32
17/04/2015 15:00 19.9 6 9-Nord-OuestNord-Ouest 16 9-Nord-OuestNord-Ouest 0.0 947.9 -1.6 35
17/04/2015 14:00 20.3 4 3-Nord-EstNord-Est 15 3-Nord-EstNord-Est 0.0 948.4 -1.3 37
17/04/2015 13:00 17.3 8 3-Nord-EstNord-Est 16 3-Nord-EstNord-Est 0.0 949.0 -0.6 43
17/04/2015 12:00 16.0 6 4-EstEst 18 2-NordNord 0.0 949.5 -0.3 55
17/04/2015 11:00 13.6 9 3-Nord-EstNord-Est 19 2-NordNord 0.0 949.7 0.3 64
17/04/2015 10:00 11.8 8 4-EstEst 21 2-NordNord 0.0 949.6 0.3 71
17/04/2015 09:00 10.4 8 4-EstEst 20 4-EstEst 0.0 949.8 0.4 76
17/04/2015 08:00 9.6 7 4-EstEst 17 4-EstEst 0.0 949.4 0.0 81
17/04/2015 07:00 9.6 0 1-CalmeCalme 9 5-Sud-EstSud-Est 0.0 949.3 -0.1 83
17/04/2015 06:00 9.9 0 1-CalmeCalme 8 5-Sud-EstSud-Est 0.0 949.4 -0.5 80
17/04/2015 05:00 10.2 0 1-CalmeCalme 6 2-NordNord 0.0 949.4 -0.9 79
First Page First Page First Page Last Page
Lineas por página
Página   de  
Partager:  
En esta página podrá acceder, en forma gráfica y en tabla, a las observaciones horarias de las últimas 24 horas, así como a los valores extremos y acumulados desde las 00 horas del día hasta la hora de actualización indicada, obtenidos en la red de estaciones de AEMET. También podrá acceder a los resúmenes diarios de estas estaciones en los últimos 7 días.

En el mapa aparecen estaciones con valor númerico y otras representadas por un punto. En las primeras, al pasar el ratón, aparece un desplegable con la información completa de la estación. Las estaciones representadas por un punto son estaciones de la red climatológica, con transmisión de datos superior a la hora, por lo que al seleccionarlas pueden no aparecer los últimos datos.

Los datos presentados han sido únicamente sometidos a controles automáticos de calidad en tiempo real, por lo que no puede garantizarse la ausencia de errores.
Toute utilisation et reproduction de l'information est autorisé sous réserve de mentionner AEMETen tant qu'auteur de celle-ci